createdAt,value
2023-01-28T00:01:16.737Z,101872.94
2023-01-28T00:03:43.316Z,101874.91
2023-01-28T00:06:13.748Z,101877.03
2023-01-28T00:08:41.170Z,101872.25
2023-01-28T00:11:09.957Z,101877.84
2023-01-28T00:13:36.301Z,101874.81
2023-01-28T00:16:05.630Z,101878.84
2023-01-28T00:18:32.800Z,101882.66
2023-01-28T00:21:10.050Z,101875.84
2023-01-28T00:23:38.095Z,101879.25
2023-01-28T00:26:07.256Z,101878.03
2023-01-28T00:28:33.685Z,101875.03
2023-01-28T00:31:06.667Z,101873.47
2023-01-28T00:33:33.256Z,101872.66
2023-01-28T00:36:01.348Z,101879.88
2023-01-28T00:38:28.402Z,101879.19
2023-01-28T00:40:55.032Z,101882.78
2023-01-28T00:43:22.778Z,101876.03
2023-01-28T00:45:50.332Z,101879.75
2023-01-28T00:48:16.767Z,101882.28
2023-01-28T00:50:44.823Z,101882.97
2023-01-28T00:53:11.053Z,101882.78
2023-01-28T00:55:37.765Z,101880.72
2023-01-28T00:58:03.890Z,101879.88
2023-01-28T01:00:30.333Z,101888.56
2023-01-28T01:02:56.593Z,101874.84
2023-01-28T01:05:23.260Z,101884.72
2023-01-28T01:07:49.416Z,101885.72
2023-01-28T01:10:18.365Z,101881.50
2023-01-28T01:12:49.031Z,101881.44
2023-01-28T01:15:17.351Z,101873.06
2023-01-28T01:17:46.684Z,101879.38
2023-01-28T01:20:16.299Z,101884.28
2023-01-28T01:22:42.413Z,101883.41
2023-01-28T01:25:09.360Z,101881.63
2023-01-28T01:27:35.696Z,101879.38
2023-01-28T01:30:02.907Z,101883.41
2023-01-28T01:32:31.066Z,101887.00
2023-01-28T01:34:57.963Z,101887.31
2023-01-28T01:37:25.115Z,101883.59
2023-01-28T01:39:51.699Z,101877.34
2023-01-28T01:42:17.865Z,101889.56
2023-01-28T01:44:58.777Z,101877.91
2023-01-28T01:47:43.500Z,101880.63
2023-01-28T01:50:30.527Z,101875.53
2023-01-28T01:53:10.966Z,101876.84
2023-01-28T01:55:40.764Z,101875.53
2023-01-28T01:58:11.451Z,101873.13
2023-01-28T02:00:39.624Z,101871.31
2023-01-28T02:03:06.153Z,101870.38
2023-01-28T02:05:32.718Z,101863.44
2023-01-28T02:08:18.148Z,101863.44
2023-01-28T02:10:46.050Z,101870.38
2023-01-28T02:13:13.791Z,101866.34
2023-01-28T02:15:40.286Z,101872.84
2023-01-28T02:18:06.436Z,101867.66
2023-01-28T02:21:03.313Z,101879.94
2023-01-28T02:23:38.612Z,101878.63
2023-01-28T02:26:14.277Z,101876.41
2023-01-28T02:28:48.362Z,101876.03
2023-01-28T02:31:18.921Z,101876.94
2023-01-28T02:34:14.490Z,101876.16
2023-01-28T02:36:48.082Z,101876.63
2023-01-28T02:39:41.833Z,101876.72
2023-01-28T02:42:33.554Z,101878.84
2023-01-28T02:44:59.759Z,101884.44
2023-01-28T02:47:45.137Z,101875.44
2023-01-28T02:50:15.040Z,101872.28
2023-01-28T02:53:19.524Z,101886.94
2023-01-28T02:56:01.868Z,101881.88
2023-01-28T02:58:50.195Z,101884.44
2023-01-28T03:01:24.622Z,101887.47
2023-01-28T03:03:57.207Z,101883.94
2023-01-28T03:06:35.038Z,101879.09
2023-01-28T03:09:21.724Z,101881.09
2023-01-28T03:12:12.337Z,101881.94
2023-01-28T03:15:00.897Z,101876.78
2023-01-28T03:17:54.461Z,101887.06
2023-01-28T03:20:42.601Z,101888.00
2023-01-28T03:23:32.286Z,101885.09
2023-01-28T03:26:22.303Z,101880.56
2023-01-28T03:29:08.473Z,101890.09
2023-01-28T03:31:54.173Z,101882.28
2023-01-28T03:34:40.469Z,101890.16
2023-01-28T03:37:08.317Z,101888.50
2023-01-28T03:39:35.215Z,101898.72
2023-01-28T03:42:06.320Z,101889.72
2023-01-28T03:44:50.069Z,101904.75
2023-01-28T03:47:24.744Z,101903.56
2023-01-28T03:49:54.497Z,101894.00
2023-01-28T03:52:31.333Z,101902.38
2023-01-28T03:55:26.907Z,101903.69
2023-01-28T03:57:53.416Z,101910.84
2023-01-28T04:00:21.227Z,101910.03
2023-01-28T04:02:47.716Z,101907.25
2023-01-28T04:05:19.132Z,101910.78
2023-01-28T04:07:50.858Z,101910.28
2023-01-28T04:10:21.562Z,101914.25
2023-01-28T04:12:57.139Z,101916.44
2023-01-28T04:15:24.801Z,101912.50
2023-01-28T04:17:51.224Z,101920.34
2023-01-28T04:20:25.433Z,101911.03
2023-01-28T04:22:52.052Z,101921.97
2023-01-28T04:25:20.080Z,101922.16
2023-01-28T04:27:46.715Z,101924.06
2023-01-28T04:30:19.797Z,101932.03
2023-01-28T04:33:04.876Z,101936.56
2023-01-28T04:35:49.561Z,101935.50
2023-01-28T04:38:34.047Z,101928.34
2023-01-28T04:41:26.911Z,101937.38
2023-01-28T04:43:55.237Z,101928.97
2023-01-28T04:46:24.375Z,101937.00
2023-01-28T04:49:01.627Z,101933.44
2023-01-28T04:51:48.036Z,101922.06
2023-01-28T04:54:32.085Z,101925.94
2023-01-28T04:57:01.125Z,101922.41
2023-01-28T04:59:27.693Z,101916.94
2023-01-28T05:01:53.919Z,101929.72
2023-01-28T05:04:21.368Z,101931.16
2023-01-28T05:06:47.580Z,101932.28
2023-01-28T05:09:16.839Z,101935.81
2023-01-28T05:11:43.617Z,101933.94
2023-01-28T05:14:10.159Z,101926.44
2023-01-28T05:16:55.748Z,101934.50
2023-01-28T05:19:22.293Z,101935.50
2023-01-28T05:21:48.595Z,101937.47
2023-01-28T05:24:25.196Z,101934.44
2023-01-28T05:26:52.572Z,101933.50
2023-01-28T05:29:19.070Z,101940.16
2023-01-28T05:31:47.081Z,101942.44
2023-01-28T05:34:14.432Z,101945.94
2023-01-28T05:36:40.623Z,101947.41
2023-01-28T05:39:22.144Z,101953.25
2023-01-28T05:41:48.547Z,101945.63
2023-01-28T05:44:15.092Z,101945.19
2023-01-28T05:47:07.870Z,101957.03
2023-01-28T05:49:53.933Z,101964.56
2023-01-28T05:52:55.652Z,101954.31
2023-01-28T05:55:27.206Z,101960.97
2023-01-28T05:57:53.937Z,101970.53
2023-01-28T06:00:23.409Z,101966.78
2023-01-28T06:02:53.098Z,101965.06
2023-01-28T06:05:20.956Z,101967.34
2023-01-28T06:07:47.615Z,101983.94
2023-01-28T06:10:17.506Z,101987.22
2023-01-28T06:12:44.041Z,101987.09
2023-01-28T06:15:29.488Z,101984.16
2023-01-28T06:18:12.154Z,101992.25
2023-01-28T06:20:38.645Z,101992.69
2023-01-28T06:23:05.661Z,101990.53
2023-01-28T06:25:32.466Z,101996.72
2023-01-28T06:28:03.297Z,101994.75
2023-01-28T06:30:29.723Z,101995.00
2023-01-28T06:32:56.089Z,102004.44
2023-01-28T06:35:23.174Z,101992.00
2023-01-28T06:37:49.626Z,101996.66
2023-01-28T06:40:16.684Z,101991.38
2023-01-28T06:42:43.060Z,101994.38
2023-01-28T06:45:09.970Z,101992.31
2023-01-28T06:47:38.795Z,102000.19
2023-01-28T06:50:06.011Z,101993.38
2023-01-28T06:52:32.141Z,102004.44
2023-01-28T06:54:58.993Z,101999.66
2023-01-28T06:57:25.231Z,102009.16
2023-01-28T06:59:51.954Z,102000.78
2023-01-28T07:02:18.131Z,101998.22
2023-01-28T07:04:44.802Z,102006.53
2023-01-28T07:07:10.909Z,101996.41
2023-01-28T07:09:37.316Z,102003.56
2023-01-28T07:12:04.926Z,102005.97
2023-01-28T07:14:32.147Z,102008.47
2023-01-28T07:16:58.500Z,102007.16
2023-01-28T07:19:24.910Z,102016.41
2023-01-28T07:21:51.179Z,102007.53
2023-01-28T07:24:17.785Z,102012.31
2023-01-28T07:26:44.078Z,102013.13
2023-01-28T07:29:10.729Z,102012.88
2023-01-28T07:31:37.015Z,102014.94
2023-01-28T07:34:03.709Z,102016.97
2023-01-28T07:36:29.934Z,102014.97
2023-01-28T07:38:56.419Z,102018.78
2023-01-28T07:41:22.738Z,102021.28
2023-01-28T07:43:49.183Z,102024.44
2023-01-28T07:46:16.313Z,102021.03
2023-01-28T07:48:42.859Z,102019.78
2023-01-28T07:51:09.017Z,102018.84
2023-01-28T07:53:35.618Z,102015.28
2023-01-28T07:56:02.208Z,102005.91
2023-01-28T07:58:28.620Z,102013.00
2023-01-28T08:00:58.383Z,102011.44
2023-01-28T08:03:26.337Z,102009.13
2023-01-28T08:27:09.536Z,102019.31
2023-01-28T08:29:35.706Z,102011.03
2023-01-28T08:32:02.153Z,102022.63
2023-01-28T08:34:28.651Z,102018.22
2023-01-28T08:36:55.174Z,102018.84
2023-01-28T08:39:21.428Z,102013.28
2023-01-28T08:41:47.869Z,102017.72
2023-01-28T08:44:14.038Z,102022.78
2023-01-28T08:46:40.546Z,102030.47
2023-01-28T08:49:06.769Z,102028.34
2023-01-28T08:51:33.262Z,102028.13
2023-01-28T08:53:59.823Z,102021.84
2023-01-28T08:56:26.458Z,102028.13
2023-01-28T08:58:53.021Z,102029.34
2023-01-28T09:01:19.531Z,102036.28
2023-01-28T09:03:45.759Z,102046.19
2023-01-28T09:06:12.290Z,102044.03
2023-01-28T09:08:38.422Z,102041.72
2023-01-28T09:11:04.880Z,102043.59
2023-01-28T09:13:31.071Z,102052.47
2023-01-28T09:15:57.652Z,102037.75
2023-01-28T09:18:23.766Z,102040.22
2023-01-28T09:20:50.241Z,102041.25
2023-01-28T09:23:16.542Z,102033.84
2023-01-28T09:25:43.190Z,102038.88
2023-01-28T09:28:09.428Z,102043.88
2023-01-28T09:30:38.162Z,102032.47
2023-01-28T09:33:06.127Z,102034.56
2023-01-28T09:35:33.340Z,102032.03
2023-01-28T09:37:59.615Z,102030.34
2023-01-28T09:40:37.308Z,102032.66
2023-01-28T09:43:49.018Z,102040.22
2023-01-28T09:46:17.747Z,102035.34
2023-01-28T09:48:47.493Z,102028.97
2023-01-28T09:51:35.625Z,102024.19
2023-01-28T09:54:10.285Z,102032.28
2023-01-28T09:56:44.952Z,102039.84
2023-01-28T09:59:18.872Z,102027.34
2023-01-28T10:02:07.925Z,102024.25
2023-01-28T10:04:42.755Z,102025.44
2023-01-28T10:07:19.383Z,102033.97
2023-01-28T10:10:01.578Z,102031.31
2023-01-28T10:12:31.697Z,102034.13
2023-01-28T10:15:28.087Z,102032.53
2023-01-28T10:18:16.174Z,102037.28
2023-01-28T10:21:05.987Z,102040.81
2023-01-28T10:23:55.625Z,102043.69
2023-01-28T10:26:42.982Z,102042.50
2023-01-28T10:29:17.045Z,102039.91
2023-01-28T10:31:52.652Z,102039.53
2023-01-28T10:34:21.394Z,102042.28
2023-01-28T10:36:49.299Z,102050.31
2023-01-28T10:39:19.388Z,102046.03
2023-01-28T10:41:57.418Z,102046.13
2023-01-28T10:44:34.305Z,102050.31
2023-01-28T10:47:10.264Z,102053.13
2023-01-28T10:49:49.071Z,102051.53
2023-01-28T10:52:15.977Z,102047.94
2023-01-28T10:54:42.444Z,102062.78
2023-01-28T10:57:17.550Z,102056.84
2023-01-28T10:59:45.118Z,102049.41
2023-01-28T11:02:23.657Z,102048.06
2023-01-28T11:05:17.147Z,102045.72
2023-01-28T11:07:50.382Z,102049.59
2023-01-28T11:10:29.322Z,102051.81
2023-01-28T11:12:57.454Z,102045.31
2023-01-28T11:15:24.542Z,102055.09
2023-01-28T11:17:59.912Z,102045.84
2023-01-28T11:20:28.755Z,102045.00
2023-01-28T11:22:57.026Z,102050.22
2023-01-28T11:25:34.246Z,102046.19
2023-01-28T11:28:04.331Z,102045.13
2023-01-28T11:30:34.152Z,102043.03
2023-01-28T11:33:15.704Z,102035.91
2023-01-28T11:35:51.444Z,102036.28
2023-01-28T11:38:20.949Z,102041.09
2023-01-28T11:40:52.653Z,102028.94
2023-01-28T11:43:22.880Z,102028.94
2023-01-28T11:46:05.048Z,102023.06
2023-01-28T11:48:55.348Z,102009.41
2023-01-28T11:51:36.091Z,102024.78
2023-01-28T11:54:26.356Z,102021.91
2023-01-28T11:57:19.449Z,102019.97
2023-01-28T11:59:55.059Z,102021.91
2023-01-28T12:02:46.784Z,102022.53
2023-01-28T12:05:47.348Z,102006.81
2023-01-28T12:08:24.324Z,102005.25
2023-01-28T12:11:12.403Z,102006.13
2023-01-28T12:14:11.918Z,102004.44
2023-01-28T12:16:40.868Z,101999.59
2023-01-28T12:19:12.361Z,102006.28
2023-01-28T12:21:57.480Z,102001.03
2023-01-28T12:24:24.840Z,101998.66
2023-01-28T12:27:02.131Z,101994.81
2023-01-28T12:29:46.958Z,101990.91
2023-01-28T12:32:38.473Z,101987.06
2023-01-28T12:35:11.438Z,101989.63
2023-01-28T12:37:55.862Z,101992.94
2023-01-28T12:40:44.359Z,101987.59
2023-01-28T12:43:13.396Z,101997.13
2023-01-28T12:45:45.393Z,101998.94
2023-01-28T12:48:30.003Z,101986.47
2023-01-28T12:51:23.678Z,101971.34
2023-01-28T12:54:00.540Z,101996.78
2023-01-28T12:56:30.920Z,101997.72
2023-01-28T12:59:09.600Z,102000.19
2023-01-28T13:01:47.539Z,101992.81
2023-01-28T13:04:35.471Z,102005.28
2023-01-28T13:07:10.616Z,102001.50
2023-01-28T13:09:49.859Z,101994.56
2023-01-28T13:12:19.285Z,102004.34
2023-01-28T13:14:47.129Z,102004.31
2023-01-28T13:17:29.332Z,102003.00
2023-01-28T13:19:57.537Z,102008.28
2023-01-28T13:22:28.882Z,102015.97
2023-01-28T13:24:55.372Z,102006.81
2023-01-28T13:27:28.516Z,102020.38
2023-01-28T13:30:22.911Z,102017.84
2023-01-28T13:33:08.714Z,102014.50
2023-01-28T13:35:38.642Z,102012.22
2023-01-28T13:38:08.273Z,102013.03
2023-01-28T13:40:35.442Z,102010.09
2023-01-28T13:43:25.102Z,102019.91
2023-01-28T13:45:59.190Z,102019.38
2023-01-28T13:48:51.847Z,102019.38
2023-01-28T13:51:23.459Z,102008.47
2023-01-28T13:54:01.837Z,102016.50
2023-01-28T13:56:38.767Z,102019.78
2023-01-28T13:59:33.830Z,102022.13
2023-01-28T14:02:21.744Z,102022.25
2023-01-28T14:04:54.429Z,102021.25
2023-01-28T14:07:44.822Z,102019.59
2023-01-28T14:10:16.998Z,102020.03
2023-01-28T14:13:12.021Z,102030.19
2023-01-28T14:16:01.564Z,102019.69
2023-01-28T14:18:33.380Z,102022.72
2023-01-28T14:21:03.931Z,102032.88
2023-01-28T14:23:31.681Z,102035.75
2023-01-28T14:26:06.115Z,102030.75
2023-01-28T14:28:47.395Z,102038.25
2023-01-28T14:31:27.151Z,102024.88
2023-01-28T14:33:59.052Z,102018.28
2023-01-28T14:36:25.611Z,102016.25
2023-01-28T14:38:56.476Z,102018.38
2023-01-28T14:41:27.639Z,102025.56
2023-01-28T14:43:55.141Z,102012.06
2023-01-28T14:46:32.410Z,102016.97
2023-01-28T14:49:52.978Z,102021.38
2023-01-28T14:52:46.884Z,102015.97
2023-01-28T14:55:37.559Z,102023.69
2023-01-28T14:58:11.438Z,102018.13
2023-01-28T15:00:38.963Z,102018.56
2023-01-28T15:03:24.769Z,102020.16
2023-01-28T15:06:15.088Z,102016.25
2023-01-28T15:08:42.167Z,102021.59
2023-01-28T15:11:14.098Z,102013.63
2023-01-28T15:13:44.163Z,102002.00
2023-01-28T15:16:28.486Z,102009.16
2023-01-28T15:18:58.566Z,102007.00
2023-01-28T15:21:27.141Z,102000.91
2023-01-28T15:23:59.260Z,101997.00
2023-01-28T15:26:28.486Z,102007.94
2023-01-28T15:28:55.822Z,102002.44
2023-01-28T15:31:22.601Z,101996.78
2023-01-28T15:34:01.219Z,102001.91
2023-01-28T15:36:28.969Z,102000.03
2023-01-28T15:38:57.035Z,102003.84
2023-01-28T15:41:37.763Z,102010.59
2023-01-28T15:44:04.779Z,102004.53
2023-01-28T15:46:33.190Z,102007.41
2023-01-28T15:49:03.790Z,101999.22
2023-01-28T15:51:33.161Z,102000.25
2023-01-28T15:54:04.947Z,101996.56
2023-01-28T15:56:32.342Z,101987.88
2023-01-28T15:59:10.105Z,101986.34
2023-01-28T16:01:36.828Z,101983.34
2023-01-28T16:04:06.243Z,101990.06
2023-01-28T16:06:39.024Z,101993.06
2023-01-28T16:09:17.330Z,101985.97
2023-01-28T16:11:44.198Z,101993.34
2023-01-28T16:14:27.559Z,101986.19
2023-01-28T16:16:56.144Z,101992.22
2023-01-28T16:19:36.811Z,101983.59
2023-01-28T16:22:04.719Z,101986.25
2023-01-28T16:24:35.425Z,101986.25
2023-01-28T16:27:18.609Z,101980.28
2023-01-28T16:29:45.342Z,101983.53
2023-01-28T16:32:34.879Z,101991.53
2023-01-28T16:35:02.568Z,101985.41
2023-01-28T16:37:29.131Z,101988.66
2023-01-28T16:39:57.377Z,101991.34
2023-01-28T16:42:25.469Z,101992.34
2023-01-28T16:44:52.101Z,102000.72
2023-01-28T16:47:18.545Z,102001.00
2023-01-28T16:49:45.950Z,102007.88
2023-01-28T16:52:12.624Z,102017.19
2023-01-28T16:54:42.543Z,102018.31
2023-01-28T16:57:14.047Z,102020.13
2023-01-28T16:59:41.146Z,102013.84
2023-01-28T17:02:12.292Z,102010.44
2023-01-28T17:04:39.139Z,102027.88
2023-01-28T17:07:05.654Z,102024.94
2023-01-28T17:09:32.785Z,102040.09
2023-01-28T17:11:59.494Z,102042.66
2023-01-28T17:14:26.106Z,102033.22
2023-01-28T17:16:52.284Z,102037.84
2023-01-28T17:19:18.978Z,102047.19
2023-01-28T17:21:47.673Z,102054.75
2023-01-28T17:24:14.566Z,102052.75
2023-01-28T17:26:40.877Z,102061.72
2023-01-28T17:29:07.811Z,102048.94
2023-01-28T17:31:35.640Z,102058.38
2023-01-28T17:34:02.439Z,102057.38
2023-01-28T17:36:28.851Z,102055.69
2023-01-28T17:38:55.895Z,102055.16
2023-01-28T17:41:22.616Z,102049.13
2023-01-28T17:43:53.522Z,102052.63
2023-01-28T17:46:21.274Z,102067.53
2023-01-28T17:48:48.072Z,102057.16
2023-01-28T17:51:18.319Z,102058.84
2023-01-28T17:53:49.692Z,102050.00
2023-01-28T17:56:18.694Z,102057.97
2023-01-28T17:58:50.301Z,102057.44
2023-01-28T18:01:16.876Z,102055.38
2023-01-28T18:03:43.706Z,102053.69
2023-01-28T18:06:10.227Z,102055.03
2023-01-28T18:08:37.110Z,102056.38
2023-01-28T18:11:08.263Z,102058.03
2023-01-28T18:13:39.634Z,102052.88
2023-01-28T18:16:08.631Z,102049.66
2023-01-28T18:18:35.239Z,102056.91
2023-01-28T18:21:04.168Z,102063.44
2023-01-28T18:23:32.446Z,102065.53
2023-01-28T18:26:01.008Z,102068.34
2023-01-28T18:28:28.439Z,102073.09
2023-01-28T18:30:55.090Z,102083.44
2023-01-28T18:33:22.936Z,102076.38
2023-01-28T18:35:49.361Z,102071.28
2023-01-28T18:38:17.851Z,102088.19
2023-01-28T18:40:45.533Z,102079.25
2023-01-28T18:43:14.902Z,102083.59
2023-01-28T18:45:44.954Z,102084.47
2023-01-28T18:48:11.815Z,102077.03
2023-01-28T18:50:38.294Z,102077.78
2023-01-28T18:53:05.229Z,102072.47
2023-01-28T18:55:32.132Z,102077.84
2023-01-28T18:57:58.862Z,102083.38
2023-01-28T19:00:25.132Z,102088.81
2023-01-28T19:02:51.586Z,102083.53
2023-01-28T19:05:18.244Z,102084.72
2023-01-28T19:07:44.679Z,102074.03
2023-01-28T19:10:11.184Z,102073.81
2023-01-28T19:12:37.790Z,102081.97
2023-01-28T19:15:04.486Z,102086.06
2023-01-28T19:17:33.957Z,102086.78
2023-01-28T19:20:01.585Z,102081.38
2023-01-28T19:22:28.286Z,102067.88
2023-01-28T19:24:54.609Z,102067.19
2023-01-28T19:27:21.345Z,102067.47
2023-01-28T19:29:48.990Z,102073.41
2023-01-28T19:32:15.667Z,102066.19
2023-01-28T19:34:41.781Z,102063.31
2023-01-28T19:37:08.622Z,102057.16
2023-01-28T19:39:35.007Z,102060.66
2023-01-28T19:42:01.673Z,102071.28
2023-01-28T19:44:29.162Z,102068.19
2023-01-28T19:46:56.319Z,102078.84
2023-01-28T19:49:22.778Z,102072.22
2023-01-28T19:51:49.575Z,102073.94
2023-01-28T19:54:16.965Z,102068.59
2023-01-28T19:56:43.939Z,102070.41
2023-01-28T19:59:11.063Z,102070.81
2023-01-28T20:01:37.895Z,102070.94
2023-01-28T20:04:04.356Z,102062.19
2023-01-28T20:06:31.889Z,102071.22
2023-01-28T20:09:03.304Z,102071.75
2023-01-28T20:11:30.122Z,102067.78
2023-01-28T20:13:56.358Z,102069.00
2023-01-28T20:16:25.350Z,102072.69
2023-01-28T20:18:54.588Z,102058.56
2023-01-28T20:21:22.296Z,102066.06
2023-01-28T20:23:50.868Z,102071.63
2023-01-28T20:26:20.585Z,102064.84
2023-01-28T20:28:47.942Z,102075.38
2023-01-28T20:31:14.924Z,102064.13
2023-01-28T20:33:41.662Z,102068.59
2023-01-28T20:36:10.550Z,102071.75
2023-01-28T20:38:39.282Z,102069.34
2023-01-28T20:41:11.072Z,102068.25
2023-01-28T20:43:39.093Z,102056.75
2023-01-28T20:46:10.080Z,102052.88
2023-01-28T20:48:36.520Z,102051.00
2023-01-28T20:51:08.675Z,102055.09
2023-01-28T20:53:35.583Z,102055.97
2023-01-28T20:56:03.292Z,102047.13
2023-01-28T20:58:31.165Z,102037.03
2023-01-28T21:00:57.772Z,102036.97
2023-01-28T21:03:24.703Z,102040.31
2023-01-28T21:05:52.220Z,102040.84
2023-01-28T21:08:19.061Z,102024.00
2023-01-28T21:10:47.366Z,102043.38
2023-01-28T21:13:14.956Z,102045.25
2023-01-28T21:15:51.667Z,102054.22
2023-01-28T21:18:18.417Z,102050.75
2023-01-28T21:20:45.302Z,102063.91
2023-01-28T21:23:14.345Z,102055.75
2023-01-28T21:25:42.567Z,102062.38
2023-01-28T21:28:13.355Z,102063.25
2023-01-28T21:30:40.333Z,102070.13
2023-01-28T21:33:07.493Z,102073.69
2023-01-28T21:35:39.278Z,102073.34
2023-01-28T21:38:06.858Z,102072.56
2023-01-28T21:40:34.529Z,102061.91
2023-01-28T21:43:01.780Z,102057.56
2023-01-28T21:45:28.634Z,102061.97
2023-01-28T21:47:55.259Z,102048.19
2023-01-28T21:50:22.920Z,102049.88
2023-01-28T21:52:50.904Z,102047.13
2023-01-28T21:55:17.749Z,102053.13
2023-01-28T21:57:45.124Z,102055.59
2023-01-28T22:00:12.417Z,102051.53
2023-01-28T22:02:39.380Z,102047.66
2023-01-28T22:05:07.185Z,102053.53
2023-01-28T22:07:33.476Z,102056.16
2023-01-28T22:10:00.604Z,102067.78
2023-01-28T22:12:27.398Z,102054.34
2023-01-28T22:14:54.233Z,102054.16
2023-01-28T22:17:20.498Z,102041.16
2023-01-28T22:19:47.483Z,102043.38
2023-01-28T22:22:15.075Z,102051.41
2023-01-28T22:24:41.821Z,102055.81
2023-01-28T22:27:08.301Z,102055.09
2023-01-28T22:29:34.905Z,102043.13
2023-01-28T22:32:03.611Z,102037.09
2023-01-28T22:34:30.125Z,102043.94
2023-01-28T22:36:56.279Z,102051.88
2023-01-28T22:39:22.785Z,102055.75
2023-01-28T22:41:49.048Z,102045.13
2023-01-28T22:44:15.679Z,102039.09
2023-01-28T22:46:42.009Z,102032.81
2023-01-28T22:49:10.463Z,102029.69
2023-01-28T22:51:36.769Z,102035.91
2023-01-28T22:54:03.374Z,102035.69
2023-01-28T22:56:30.500Z,102044.66
2023-01-28T22:58:59.803Z,102046.59
2023-01-28T23:01:26.667Z,102044.72
2023-01-28T23:03:54.965Z,102046.47
2023-01-28T23:06:22.948Z,102045.19
2023-01-28T23:08:51.000Z,102034.56
2023-01-28T23:11:24.570Z,102037.09
2023-01-28T23:14:14.092Z,102033.50
2023-01-28T23:16:59.083Z,102043.25
2023-01-28T23:19:44.646Z,102041.53
2023-01-28T23:22:43.340Z,102042.44
2023-01-28T23:25:10.142Z,102024.66
2023-01-28T23:27:36.291Z,102032.16
2023-01-28T23:30:03.545Z,102029.47
2023-01-28T23:32:29.822Z,102022.31
2023-01-28T23:34:56.525Z,102022.13
2023-01-28T23:37:22.778Z,102014.38
2023-01-28T23:39:49.199Z,102004.94
2023-01-28T23:42:18.484Z,101991.97
2023-01-28T23:44:45.061Z,101986.63
2023-01-28T23:47:11.535Z,101985.41
2023-01-28T23:49:38.739Z,101979.88
2023-01-28T23:52:06.063Z,101990.34
2023-01-28T23:54:32.520Z,101983.72
2023-01-28T23:56:59.616Z,101982.75
2023-01-28T23:59:26.509Z,101976.78
